sensor_id;sensor_type;location;lat;lon;timestamp;P1;durP1;ratioP1;P2;durP2;ratioP2
19446;SDS011;9862;49.462;11.054;2023-05-07T00:00:49;4.55;;;2.85;;
19446;SDS011;9862;49.462;11.054;2023-05-07T00:03:17;2.92;;;2.40;;
19446;SDS011;9862;49.462;11.054;2023-05-07T00:05:44;4.40;;;2.70;;
19446;SDS011;9862;49.462;11.054;2023-05-07T00:08:11;3.42;;;2.25;;
19446;SDS011;9862;49.462;11.054;2023-05-07T00:10:38;2.30;;;2.10;;
19446;SDS011;9862;49.462;11.054;2023-05-07T00:13:04;4.15;;;2.45;;
19446;SDS011;9862;49.462;11.054;2023-05-07T00:15:31;3.47;;;2.50;;
19446;SDS011;9862;49.462;11.054;2023-05-07T00:17:57;3.28;;;2.30;;
19446;SDS011;9862;49.462;11.054;2023-05-07T00:20:26;5.25;;;2.33;;
19446;SDS011;9862;49.462;11.054;2023-05-07T00:22:52;2.35;;;2.15;;
19446;SDS011;9862;49.462;11.054;2023-05-07T00:25:19;3.40;;;2.30;;
19446;SDS011;9862;49.462;11.054;2023-05-07T00:27:46;3.22;;;2.50;;
19446;SDS011;9862;49.462;11.054;2023-05-07T00:30:12;3.05;;;2.47;;
19446;SDS011;9862;49.462;11.054;2023-05-07T00:32:39;4.00;;;2.38;;
19446;SDS011;9862;49.462;11.054;2023-05-07T00:35:06;4.97;;;2.53;;
19446;SDS011;9862;49.462;11.054;2023-05-07T00:37:35;3.08;;;2.58;;
19446;SDS011;9862;49.462;11.054;2023-05-07T00:40:01;3.08;;;2.35;;
19446;SDS011;9862;49.462;11.054;2023-05-07T00:42:32;2.25;;;2.05;;
19446;SDS011;9862;49.462;11.054;2023-05-07T00:44:58;3.75;;;2.40;;
19446;SDS011;9862;49.462;11.054;2023-05-07T00:47:25;3.25;;;2.58;;
19446;SDS011;9862;49.462;11.054;2023-05-07T00:49:52;4.30;;;2.50;;
19446;SDS011;9862;49.462;11.054;2023-05-07T00:52:19;2.63;;;2.38;;
19446;SDS011;9862;49.462;11.054;2023-05-07T00:54:49;3.95;;;2.45;;
19446;SDS011;9862;49.462;11.054;2023-05-07T00:57:15;3.53;;;2.40;;
19446;SDS011;9862;49.462;11.054;2023-05-07T00:59:42;2.35;;;2.10;;
19446;SDS011;9862;49.462;11.054;2023-05-07T01:02:08;2.13;;;1.90;;
19446;SDS011;9862;49.462;11.054;2023-05-07T01:04:36;7.10;;;2.72;;
19446;SDS011;9862;49.462;11.054;2023-05-07T01:07:02;3.80;;;2.50;;
19446;SDS011;9862;49.462;11.054;2023-05-07T01:09:30;2.95;;;2.30;;
19446;SDS011;9862;49.462;11.054;2023-05-07T01:12:01;2.88;;;2.20;;
19446;SDS011;9862;49.462;11.054;2023-05-07T01:14:29;2.88;;;2.45;;
19446;SDS011;9862;49.462;11.054;2023-05-07T01:16:56;3.80;;;2.15;;
19446;SDS011;9862;49.462;11.054;2023-05-07T01:19:23;2.83;;;2.55;;
19446;SDS011;9862;49.462;11.054;2023-05-07T01:21:51;2.67;;;2.38;;
19446;SDS011;9862;49.462;11.054;2023-05-07T01:24:29;2.97;;;2.60;;
19446;SDS011;9862;49.462;11.054;2023-05-07T01:26:56;3.17;;;2.60;;
19446;SDS011;9862;49.462;11.054;2023-05-07T01:29:22;3.88;;;2.65;;
19446;SDS011;9862;49.462;11.054;2023-05-07T01:31:49;3.25;;;2.50;;
19446;SDS011;9862;49.462;11.054;2023-05-07T01:34:18;2.67;;;2.33;;
19446;SDS011;9862;49.462;11.054;2023-05-07T01:36:47;2.95;;;2.65;;
19446;SDS011;9862;49.462;11.054;2023-05-07T01:39:14;3.17;;;2.60;;
19446;SDS011;9862;49.462;11.054;2023-05-07T01:41:43;5.57;;;3.10;;
19446;SDS011;9862;49.462;11.054;2023-05-07T01:46:38;4.65;;;3.05;;
19446;SDS011;9862;49.462;11.054;2023-05-07T01:49:05;4.70;;;2.63;;
19446;SDS011;9862;49.462;11.054;2023-05-07T01:51:32;5.03;;;3.17;;
19446;SDS011;9862;49.462;11.054;2023-05-07T01:53:59;2.90;;;2.70;;
19446;SDS011;9862;49.462;11.054;2023-05-07T01:56:26;3.15;;;2.58;;
19446;SDS011;9862;49.462;11.054;2023-05-07T01:58:54;2.80;;;2.60;;
19446;SDS011;9862;49.462;11.054;2023-05-07T02:01:20;3.42;;;2.85;;
19446;SDS011;9862;49.462;11.054;2023-05-07T02:03:47;3.58;;;2.72;;
19446;SDS011;9862;49.462;11.054;2023-05-07T02:06:14;3.70;;;2.65;;
19446;SDS011;9862;49.462;11.054;2023-05-07T02:08:41;4.93;;;4.10;;
19446;SDS011;9862;49.462;11.054;2023-05-07T02:11:09;11.30;;;5.82;;
19446;SDS011;9862;49.462;11.054;2023-05-07T02:13:37;6.15;;;4.57;;
19446;SDS011;9862;49.462;11.054;2023-05-07T02:16:07;4.80;;;3.58;;
19446;SDS011;9862;49.462;11.054;2023-05-07T02:18:33;5.47;;;3.50;;
19446;SDS011;9862;49.462;11.054;2023-05-07T02:21:01;4.32;;;3.83;;
19446;SDS011;9862;49.462;11.054;2023-05-07T02:23:29;11.48;;;8.75;;
19446;SDS011;9862;49.462;11.054;2023-05-07T02:25:56;10.32;;;7.18;;
19446;SDS011;9862;49.462;11.054;2023-05-07T02:28:22;6.45;;;4.85;;
19446;SDS011;9862;49.462;11.054;2023-05-07T02:30:49;6.03;;;4.40;;
19446;SDS011;9862;49.462;11.054;2023-05-07T02:33:17;5.05;;;3.65;;
19446;SDS011;9862;49.462;11.054;2023-05-07T02:35:43;5.53;;;4.28;;
19446;SDS011;9862;49.462;11.054;2023-05-07T02:38:10;8.10;;;5.05;;
19446;SDS011;9862;49.462;11.054;2023-05-07T02:40:36;5.90;;;4.65;;
19446;SDS011;9862;49.462;11.054;2023-05-07T02:43:04;10.23;;;6.65;;
19446;SDS011;9862;49.462;11.054;2023-05-07T02:45:31;8.27;;;6.03;;
19446;SDS011;9862;49.462;11.054;2023-05-07T02:47:58;7.15;;;4.65;;
19446;SDS011;9862;49.462;11.054;2023-05-07T02:50:26;4.85;;;3.88;;
19446;SDS011;9862;49.462;11.054;2023-05-07T02:52:53;4.35;;;3.47;;
19446;SDS011;9862;49.462;11.054;2023-05-07T02:55:20;4.45;;;3.42;;
19446;SDS011;9862;49.462;11.054;2023-05-07T02:57:47;4.57;;;4.15;;
19446;SDS011;9862;49.462;11.054;2023-05-07T03:00:14;7.25;;;4.45;;
19446;SDS011;9862;49.462;11.054;2023-05-07T03:02:42;6.75;;;4.05;;
19446;SDS011;9862;49.462;11.054;2023-05-07T03:05:09;7.13;;;5.25;;
19446;SDS011;9862;49.462;11.054;2023-05-07T03:07:38;5.90;;;5.30;;
19446;SDS011;9862;49.462;11.054;2023-05-07T03:10:05;5.95;;;3.90;;
19446;SDS011;9862;49.462;11.054;2023-05-07T03:12:32;5.90;;;4.28;;
19446;SDS011;9862;49.462;11.054;2023-05-07T03:14:58;6.85;;;4.70;;
19446;SDS011;9862;49.462;11.054;2023-05-07T03:17:25;4.97;;;4.13;;
19446;SDS011;9862;49.462;11.054;2023-05-07T03:19:51;5.82;;;4.43;;
19446;SDS011;9862;49.462;11.054;2023-05-07T03:22:18;5.72;;;4.47;;
19446;SDS011;9862;49.462;11.054;2023-05-07T03:24:46;6.53;;;4.95;;
19446;SDS011;9862;49.462;11.054;2023-05-07T03:27:13;6.82;;;5.80;;
19446;SDS011;9862;49.462;11.054;2023-05-07T03:29:39;6.57;;;5.93;;
19446;SDS011;9862;49.462;11.054;2023-05-07T03:32:06;7.93;;;5.95;;
19446;SDS011;9862;49.462;11.054;2023-05-07T03:34:33;7.28;;;5.45;;
19446;SDS011;9862;49.462;11.054;2023-05-07T03:36:59;7.07;;;5.00;;
19446;SDS011;9862;49.462;11.054;2023-05-07T03:39:26;5.95;;;5.13;;
19446;SDS011;9862;49.462;11.054;2023-05-07T03:41:54;4.60;;;4.20;;
19446;SDS011;9862;49.462;11.054;2023-05-07T03:44:21;5.10;;;4.60;;
19446;SDS011;9862;49.462;11.054;2023-05-07T03:46:47;9.13;;;5.90;;
19446;SDS011;9862;49.462;11.054;2023-05-07T03:49:14;11.23;;;7.82;;
19446;SDS011;9862;49.462;11.054;2023-05-07T03:51:40;13.48;;;9.07;;
19446;SDS011;9862;49.462;11.054;2023-05-07T03:54:07;13.52;;;8.80;;
19446;SDS011;9862;49.462;11.054;2023-05-07T03:56:34;9.45;;;7.53;;
19446;SDS011;9862;49.462;11.054;2023-05-07T03:59:02;5.65;;;4.88;;
19446;SDS011;9862;49.462;11.054;2023-05-07T04:01:28;7.25;;;5.55;;
19446;SDS011;9862;49.462;11.054;2023-05-07T04:03:55;6.43;;;5.00;;
19446;SDS011;9862;49.462;11.054;2023-05-07T04:06:22;6.40;;;5.47;;
19446;SDS011;9862;49.462;11.054;2023-05-07T04:08:49;6.38;;;5.05;;
19446;SDS011;9862;49.462;11.054;2023-05-07T04:11:15;8.10;;;5.72;;
19446;SDS011;9862;49.462;11.054;2023-05-07T04:13:42;8.18;;;5.93;;
19446;SDS011;9862;49.462;11.054;2023-05-07T04:16:10;6.70;;;5.95;;
19446;SDS011;9862;49.462;11.054;2023-05-07T04:18:37;6.82;;;5.63;;
19446;SDS011;9862;49.462;11.054;2023-05-07T04:21:03;6.00;;;5.10;;
19446;SDS011;9862;49.462;11.054;2023-05-07T04:23:30;8.27;;;5.75;;
19446;SDS011;9862;49.462;11.054;2023-05-07T04:25:56;7.13;;;5.47;;
19446;SDS011;9862;49.462;11.054;2023-05-07T04:28:23;6.10;;;5.40;;
19446;SDS011;9862;49.462;11.054;2023-05-07T04:30:50;8.35;;;5.22;;
19446;SDS011;9862;49.462;11.054;2023-05-07T04:33:18;6.32;;;5.55;;
19446;SDS011;9862;49.462;11.054;2023-05-07T04:35:45;6.32;;;5.60;;
19446;SDS011;9862;49.462;11.054;2023-05-07T04:38:11;6.55;;;5.45;;
19446;SDS011;9862;49.462;11.054;2023-05-07T04:40:38;6.47;;;5.38;;
19446;SDS011;9862;49.462;11.054;2023-05-07T04:43:05;6.43;;;5.38;;
19446;SDS011;9862;49.462;11.054;2023-05-07T04:45:32;10.70;;;6.22;;
19446;SDS011;9862;49.462;11.054;2023-05-07T04:47:59;7.75;;;6.53;;
19446;SDS011;9862;49.462;11.054;2023-05-07T04:50:27;6.85;;;5.65;;
19446;SDS011;9862;49.462;11.054;2023-05-07T04:52:53;7.65;;;6.15;;
19446;SDS011;9862;49.462;11.054;2023-05-07T04:55:20;6.85;;;5.80;;
19446;SDS011;9862;49.462;11.054;2023-05-07T04:57:46;10.10;;;7.75;;
19446;SDS011;9862;49.462;11.054;2023-05-07T05:00:13;8.88;;;6.63;;
19446;SDS011;9862;49.462;11.054;2023-05-07T05:02:40;6.50;;;5.57;;
19446;SDS011;9862;49.462;11.054;2023-05-07T05:05:07;10.50;;;6.22;;
19446;SDS011;9862;49.462;11.054;2023-05-07T05:07:35;7.03;;;6.07;;
19446;SDS011;9862;49.462;11.054;2023-05-07T05:10:02;8.10;;;6.45;;
19446;SDS011;9862;49.462;11.054;2023-05-07T05:12:29;9.80;;;6.20;;
19446;SDS011;9862;49.462;11.054;2023-05-07T05:14:56;8.35;;;6.80;;
19446;SDS011;9862;49.462;11.054;2023-05-07T05:17:22;7.65;;;6.63;;
19446;SDS011;9862;49.462;11.054;2023-05-07T05:19:49;7.45;;;6.13;;
19446;SDS011;9862;49.462;11.054;2023-05-07T05:22:16;8.88;;;6.07;;
19446;SDS011;9862;49.462;11.054;2023-05-07T05:24:44;8.82;;;6.80;;
19446;SDS011;9862;49.462;11.054;2023-05-07T05:27:10;6.68;;;6.03;;
19446;SDS011;9862;49.462;11.054;2023-05-07T05:29:37;10.07;;;6.45;;
19446;SDS011;9862;49.462;11.054;2023-05-07T05:32:03;10.18;;;6.53;;
19446;SDS011;9862;49.462;11.054;2023-05-07T05:34:30;7.53;;;6.13;;
19446;SDS011;9862;49.462;11.054;2023-05-07T05:36:58;10.77;;;6.82;;
19446;SDS011;9862;49.462;11.054;2023-05-07T05:39:25;8.23;;;6.63;;
19446;SDS011;9862;49.462;11.054;2023-05-07T05:41:53;8.55;;;6.75;;
19446;SDS011;9862;49.462;11.054;2023-05-07T05:44:19;8.63;;;7.03;;
19446;SDS011;9862;49.462;11.054;2023-05-07T05:46:46;10.70;;;7.00;;
19446;SDS011;9862;49.462;11.054;2023-05-07T05:49:14;8.80;;;6.53;;
19446;SDS011;9862;49.462;11.054;2023-05-07T05:51:41;9.30;;;7.43;;
19446;SDS011;9862;49.462;11.054;2023-05-07T05:54:07;8.02;;;6.53;;
19446;SDS011;9862;49.462;11.054;2023-05-07T05:56:34;8.02;;;6.53;;
19446;SDS011;9862;49.462;11.054;2023-05-07T05:59:02;8.70;;;6.45;;
19446;SDS011;9862;49.462;11.054;2023-05-07T06:01:29;8.15;;;6.07;;
19446;SDS011;9862;49.462;11.054;2023-05-07T06:03:57;7.78;;;6.28;;
19446;SDS011;9862;49.462;11.054;2023-05-07T06:06:23;8.73;;;6.55;;
19446;SDS011;9862;49.462;11.054;2023-05-07T06:08:51;9.50;;;6.85;;
19446;SDS011;9862;49.462;11.054;2023-05-07T06:11:18;8.27;;;6.43;;
19446;SDS011;9862;49.462;11.054;2023-05-07T06:13:45;10.15;;;7.72;;
19446;SDS011;9862;49.462;11.054;2023-05-07T06:16:13;9.07;;;7.13;;
19446;SDS011;9862;49.462;11.054;2023-05-07T06:18:40;9.65;;;7.05;;
19446;SDS011;9862;49.462;11.054;2023-05-07T06:21:06;7.93;;;6.75;;
19446;SDS011;9862;49.462;11.054;2023-05-07T06:23:33;7.78;;;6.43;;
19446;SDS011;9862;49.462;11.054;2023-05-07T06:26:00;11.75;;;6.97;;
19446;SDS011;9862;49.462;11.054;2023-05-07T06:28:26;7.55;;;6.57;;
19446;SDS011;9862;49.462;11.054;2023-05-07T06:30:55;7.55;;;6.38;;
19446;SDS011;9862;49.462;11.054;2023-05-07T06:33:37;15.00;;;9.98;;
19446;SDS011;9862;49.462;11.054;2023-05-07T06:36:04;11.82;;;8.60;;
19446;SDS011;9862;49.462;11.054;2023-05-07T06:38:32;9.05;;;6.78;;
19446;SDS011;9862;49.462;11.054;2023-05-07T06:40:58;9.77;;;6.60;;
19446;SDS011;9862;49.462;11.054;2023-05-07T06:43:25;7.93;;;6.68;;
19446;SDS011;9862;49.462;11.054;2023-05-07T06:45:51;9.20;;;6.72;;
19446;SDS011;9862;49.462;11.054;2023-05-07T06:48:18;11.98;;;7.15;;
19446;SDS011;9862;49.462;11.054;2023-05-07T06:50:46;8.27;;;6.53;;
19446;SDS011;9862;49.462;11.054;2023-05-07T06:53:13;9.98;;;7.82;;
19446;SDS011;9862;49.462;11.054;2023-05-07T06:55:39;9.13;;;6.60;;
19446;SDS011;9862;49.462;11.054;2023-05-07T06:58:06;8.95;;;6.90;;
19446;SDS011;9862;49.462;11.054;2023-05-07T07:00:33;21.17;;;12.30;;
19446;SDS011;9862;49.462;11.054;2023-05-07T07:03:00;18.55;;;12.50;;
19446;SDS011;9862;49.462;11.054;2023-05-07T07:05:26;11.00;;;9.05;;
19446;SDS011;9862;49.462;11.054;2023-05-07T07:07:54;8.50;;;6.45;;
19446;SDS011;9862;49.462;11.054;2023-05-07T07:10:21;10.18;;;7.57;;
19446;SDS011;9862;49.462;11.054;2023-05-07T07:12:48;9.90;;;7.90;;
19446;SDS011;9862;49.462;11.054;2023-05-07T07:15:15;18.05;;;11.60;;
19446;SDS011;9862;49.462;11.054;2023-05-07T07:17:42;10.27;;;8.43;;
19446;SDS011;9862;49.462;11.054;2023-05-07T07:20:09;8.07;;;6.57;;
19446;SDS011;9862;49.462;11.054;2023-05-07T07:22:36;8.77;;;6.32;;
19446;SDS011;9862;49.462;11.054;2023-05-07T07:25:05;7.25;;;6.03;;
19446;SDS011;9862;49.462;11.054;2023-05-07T07:27:32;7.53;;;6.72;;
19446;SDS011;9862;49.462;11.054;2023-05-07T07:29:58;7.55;;;6.13;;
19446;SDS011;9862;49.462;11.054;2023-05-07T07:32:25;9.93;;;6.45;;
19446;SDS011;9862;49.462;11.054;2023-05-07T07:34:52;9.80;;;6.70;;
19446;SDS011;9862;49.462;11.054;2023-05-07T07:37:18;8.07;;;6.53;;
19446;SDS011;9862;49.462;11.054;2023-05-07T07:39:45;8.70;;;6.15;;
19446;SDS011;9862;49.462;11.054;2023-05-07T07:42:13;7.82;;;6.20;;
19446;SDS011;9862;49.462;11.054;2023-05-07T07:44:39;8.50;;;6.70;;
19446;SDS011;9862;49.462;11.054;2023-05-07T07:47:06;8.20;;;6.05;;
19446;SDS011;9862;49.462;11.054;2023-05-07T07:49:32;7.03;;;5.40;;
19446;SDS011;9862;49.462;11.054;2023-05-07T07:51:59;6.95;;;6.13;;
19446;SDS011;9862;49.462;11.054;2023-05-07T07:54:25;7.68;;;6.50;;
19446;SDS011;9862;49.462;11.054;2023-05-07T07:56:52;6.80;;;6.05;;
19446;SDS011;9862;49.462;11.054;2023-05-07T07:59:20;6.50;;;4.75;;
19446;SDS011;9862;49.462;11.054;2023-05-07T08:01:47;7.50;;;5.70;;
19446;SDS011;9862;49.462;11.054;2023-05-07T08:04:15;8.02;;;6.15;;
19446;SDS011;9862;49.462;11.054;2023-05-07T08:06:41;7.40;;;6.15;;
19446;SDS011;9862;49.462;11.054;2023-05-07T08:09:08;6.45;;;5.75;;
19446;SDS011;9862;49.462;11.054;2023-05-07T08:11:34;10.10;;;6.45;;
19446;SDS011;9862;49.462;11.054;2023-05-07T08:14:01;8.63;;;6.15;;
19446;SDS011;9862;49.462;11.054;2023-05-07T08:16:29;6.70;;;5.72;;
19446;SDS011;9862;49.462;11.054;2023-05-07T08:18:56;9.98;;;6.97;;
19446;SDS011;9862;49.462;11.054;2023-05-07T08:21:23;6.25;;;5.65;;
19446;SDS011;9862;49.462;11.054;2023-05-07T08:23:49;10.45;;;6.32;;
19446;SDS011;9862;49.462;11.054;2023-05-07T08:26:16;8.25;;;5.78;;
19446;SDS011;9862;49.462;11.054;2023-05-07T08:28:42;8.60;;;6.13;;
19446;SDS011;9862;49.462;11.054;2023-05-07T08:31:09;6.15;;;5.45;;
19446;SDS011;9862;49.462;11.054;2023-05-07T08:33:37;6.10;;;5.50;;
19446;SDS011;9862;49.462;11.054;2023-05-07T08:36:03;6.60;;;5.63;;
19446;SDS011;9862;49.462;11.054;2023-05-07T08:38:30;6.32;;;5.72;;
19446;SDS011;9862;49.462;11.054;2023-05-07T08:40:57;7.57;;;5.55;;
19446;SDS011;9862;49.462;11.054;2023-05-07T08:43:24;7.55;;;5.82;;
19446;SDS011;9862;49.462;11.054;2023-05-07T08:45:53;8.93;;;5.80;;
19446;SDS011;9862;49.462;11.054;2023-05-07T08:48:21;7.05;;;5.75;;
19446;SDS011;9862;49.462;11.054;2023-05-07T08:50:52;6.80;;;5.47;;
19446;SDS011;9862;49.462;11.054;2023-05-07T08:53:19;6.82;;;5.65;;
19446;SDS011;9862;49.462;11.054;2023-05-07T08:55:46;6.70;;;5.45;;
19446;SDS011;9862;49.462;11.054;2023-05-07T08:58:13;6.45;;;5.57;;
19446;SDS011;9862;49.462;11.054;2023-05-07T09:00:40;7.05;;;6.18;;
19446;SDS011;9862;49.462;11.054;2023-05-07T09:03:08;7.45;;;5.47;;
19446;SDS011;9862;49.462;11.054;2023-05-07T09:05:37;5.55;;;4.97;;
19446;SDS011;9862;49.462;11.054;2023-05-07T09:08:06;5.93;;;5.32;;
19446;SDS011;9862;49.462;11.054;2023-05-07T09:10:34;7.38;;;5.40;;
19446;SDS011;9862;49.462;11.054;2023-05-07T09:13:01;7.70;;;5.93;;
19446;SDS011;9862;49.462;11.054;2023-05-07T09:15:28;6.47;;;5.65;;
19446;SDS011;9862;49.462;11.054;2023-05-07T09:17:58;7.90;;;5.72;;
19446;SDS011;9862;49.462;11.054;2023-05-07T09:20:26;6.32;;;5.45;;
19446;SDS011;9862;49.462;11.054;2023-05-07T09:22:54;8.48;;;5.90;;
19446;SDS011;9862;49.462;11.054;2023-05-07T09:25:28;8.07;;;5.80;;
19446;SDS011;9862;49.462;11.054;2023-05-07T09:27:56;9.43;;;6.30;;
19446;SDS011;9862;49.462;11.054;2023-05-07T09:30:22;8.63;;;5.55;;
19446;SDS011;9862;49.462;11.054;2023-05-07T09:32:49;6.78;;;5.55;;
19446;SDS011;9862;49.462;11.054;2023-05-07T09:35:17;9.15;;;7.03;;
19446;SDS011;9862;49.462;11.054;2023-05-07T09:37:46;8.23;;;6.25;;
19446;SDS011;9862;49.462;11.054;2023-05-07T09:40:19;6.55;;;5.45;;
19446;SDS011;9862;49.462;11.054;2023-05-07T09:42:49;7.43;;;5.97;;
19446;SDS011;9862;49.462;11.054;2023-05-07T09:45:16;7.68;;;5.18;;
19446;SDS011;9862;49.462;11.054;2023-05-07T09:47:48;6.03;;;5.25;;
19446;SDS011;9862;49.462;11.054;2023-05-07T09:50:16;5.38;;;4.78;;
19446;SDS011;9862;49.462;11.054;2023-05-07T09:52:43;7.20;;;5.25;;
19446;SDS011;9862;49.462;11.054;2023-05-07T09:55:11;6.40;;;5.50;;
19446;SDS011;9862;49.462;11.054;2023-05-07T09:57:39;6.57;;;5.18;;
19446;SDS011;9862;49.462;11.054;2023-05-07T10:00:10;7.18;;;5.53;;
19446;SDS011;9862;49.462;11.054;2023-05-07T10:02:37;8.35;;;5.13;;
19446;SDS011;9862;49.462;11.054;2023-05-07T10:05:11;8.00;;;5.32;;
19446;SDS011;9862;49.462;11.054;2023-05-07T10:07:38;6.55;;;5.80;;
19446;SDS011;9862;49.462;11.054;2023-05-07T10:10:07;6.80;;;5.43;;
19446;SDS011;9862;49.462;11.054;2023-05-07T10:12:34;7.47;;;4.80;;
19446;SDS011;9862;49.462;11.054;2023-05-07T10:15:05;5.15;;;4.63;;
19446;SDS011;9862;49.462;11.054;2023-05-07T10:17:35;6.10;;;4.57;;
19446;SDS011;9862;49.462;11.054;2023-05-07T10:20:02;6.15;;;5.32;;
19446;SDS011;9862;49.462;11.054;2023-05-07T10:22:30;7.50;;;5.15;;
19446;SDS011;9862;49.462;11.054;2023-05-07T10:24:59;6.18;;;5.50;;
19446;SDS011;9862;49.462;11.054;2023-05-07T10:27:28;6.10;;;4.57;;
19446;SDS011;9862;49.462;11.054;2023-05-07T10:29:58;5.43;;;4.90;;
19446;SDS011;9862;49.462;11.054;2023-05-07T10:32:35;5.43;;;4.88;;
19446;SDS011;9862;49.462;11.054;2023-05-07T10:35:06;5.47;;;4.80;;
19446;SDS011;9862;49.462;11.054;2023-05-07T10:37:36;6.32;;;5.07;;
19446;SDS011;9862;49.462;11.054;2023-05-07T10:40:04;5.35;;;4.85;;
19446;SDS011;9862;49.462;11.054;2023-05-07T10:42:32;6.82;;;4.75;;
19446;SDS011;9862;49.462;11.054;2023-05-07T10:45:10;6.05;;;5.00;;
19446;SDS011;9862;49.462;11.054;2023-05-07T10:47:47;6.22;;;4.47;;
19446;SDS011;9862;49.462;11.054;2023-05-07T10:50:32;4.70;;;4.30;;
19446;SDS011;9862;49.462;11.054;2023-05-07T10:53:20;5.53;;;4.22;;
19446;SDS011;9862;49.462;11.054;2023-05-07T10:55:49;5.32;;;4.75;;
19446;SDS011;9862;49.462;11.054;2023-05-07T10:58:23;5.15;;;3.92;;
19446;SDS011;9862;49.462;11.054;2023-05-07T11:00:55;6.13;;;4.68;;
19446;SDS011;9862;49.462;11.054;2023-05-07T11:03:24;5.18;;;4.53;;
19446;SDS011;9862;49.462;11.054;2023-05-07T11:08:54;6.00;;;3.85;;
19446;SDS011;9862;49.462;11.054;2023-05-07T11:14:13;5.65;;;4.80;;
19446;SDS011;9862;49.462;11.054;2023-05-07T11:16:40;5.68;;;4.90;;
19446;SDS011;9862;49.462;11.054;2023-05-07T11:19:10;5.32;;;4.63;;
19446;SDS011;9862;49.462;11.054;2023-05-07T11:21:37;6.50;;;5.30;;
19446;SDS011;9862;49.462;11.054;2023-05-07T11:24:05;7.05;;;5.32;;
19446;SDS011;9862;49.462;11.054;2023-05-07T11:26:43;11.88;;;8.43;;
19446;SDS011;9862;49.462;11.054;2023-05-07T11:29:12;5.70;;;5.07;;
19446;SDS011;9862;49.462;11.054;2023-05-07T11:31:40;5.47;;;4.18;;
19446;SDS011;9862;49.462;11.054;2023-05-07T11:34:07;7.30;;;4.30;;
19446;SDS011;9862;49.462;11.054;2023-05-07T11:36:37;6.30;;;3.75;;
19446;SDS011;9862;49.462;11.054;2023-05-07T11:39:22;4.05;;;3.38;;
19446;SDS011;9862;49.462;11.054;2023-05-07T11:41:50;3.90;;;3.50;;
19446;SDS011;9862;49.462;11.054;2023-05-07T11:44:16;3.88;;;3.58;;
19446;SDS011;9862;49.462;11.054;2023-05-07T11:46:43;4.63;;;3.95;;
19446;SDS011;9862;49.462;11.054;2023-05-07T11:49:10;4.53;;;3.45;;
19446;SDS011;9862;49.462;11.054;2023-05-07T11:51:38;5.10;;;3.90;;
19446;SDS011;9862;49.462;11.054;2023-05-07T11:54:07;4.50;;;3.40;;
19446;SDS011;9862;49.462;11.054;2023-05-07T11:56:36;4.70;;;3.85;;
19446;SDS011;9862;49.462;11.054;2023-05-07T11:59:03;3.92;;;3.38;;
19446;SDS011;9862;49.462;11.054;2023-05-07T12:01:30;3.90;;;3.50;;
19446;SDS011;9862;49.462;11.054;2023-05-07T12:03:57;5.72;;;3.22;;
19446;SDS011;9862;49.462;11.054;2023-05-07T12:06:24;8.98;;;6.40;;
19446;SDS011;9862;49.462;11.054;2023-05-07T12:08:52;4.57;;;4.03;;
19446;SDS011;9862;49.462;11.054;2023-05-07T12:11:22;4.60;;;3.80;;
19446;SDS011;9862;49.462;11.054;2023-05-07T12:13:50;4.05;;;3.65;;
19446;SDS011;9862;49.462;11.054;2023-05-07T12:16:17;4.00;;;3.60;;
19446;SDS011;9862;49.462;11.054;2023-05-07T12:18:44;3.80;;;3.50;;
19446;SDS011;9862;49.462;11.054;2023-05-07T12:21:11;4.05;;;3.20;;
19446;SDS011;9862;49.462;11.054;2023-05-07T12:23:38;3.13;;;2.83;;
19446;SDS011;9862;49.462;11.054;2023-05-07T12:26:06;3.90;;;3.50;;
19446;SDS011;9862;49.462;11.054;2023-05-07T12:28:36;4.57;;;4.10;;
19446;SDS011;9862;49.462;11.054;2023-05-07T12:31:04;4.25;;;3.80;;
19446;SDS011;9862;49.462;11.054;2023-05-07T12:33:31;5.85;;;4.45;;
19446;SDS011;9862;49.462;11.054;2023-05-07T12:35:58;5.10;;;3.85;;
19446;SDS011;9862;49.462;11.054;2023-05-07T12:38:32;4.63;;;4.03;;
19446;SDS011;9862;49.462;11.054;2023-05-07T12:41:01;5.85;;;4.70;;
19446;SDS011;9862;49.462;11.054;2023-05-07T12:43:29;5.32;;;4.15;;
19446;SDS011;9862;49.462;11.054;2023-05-07T12:45:56;5.80;;;3.97;;
19446;SDS011;9862;49.462;11.054;2023-05-07T12:48:26;4.55;;;4.03;;
19446;SDS011;9862;49.462;11.054;2023-05-07T12:50:53;4.55;;;3.53;;
19446;SDS011;9862;49.462;11.054;2023-05-07T12:53:20;4.57;;;3.53;;
19446;SDS011;9862;49.462;11.054;2023-05-07T12:55:49;5.70;;;4.35;;
19446;SDS011;9862;49.462;11.054;2023-05-07T12:58:17;6.28;;;3.85;;
19446;SDS011;9862;49.462;11.054;2023-05-07T13:00:47;5.43;;;3.80;;
19446;SDS011;9862;49.462;11.054;2023-05-07T13:03:20;5.05;;;3.95;;
19446;SDS011;9862;49.462;11.054;2023-05-07T13:05:49;4.32;;;3.92;;
19446;SDS011;9862;49.462;11.054;2023-05-07T13:08:23;5.57;;;3.95;;
19446;SDS011;9862;49.462;11.054;2023-05-07T13:10:50;4.07;;;3.67;;
19446;SDS011;9862;49.462;11.054;2023-05-07T13:13:17;4.18;;;3.25;;
19446;SDS011;9862;49.462;11.054;2023-05-07T13:15:44;5.60;;;3.75;;
19446;SDS011;9862;49.462;11.054;2023-05-07T13:18:12;6.18;;;3.28;;
19446;SDS011;9862;49.462;11.054;2023-05-07T13:20:38;6.78;;;3.38;;
19446;SDS011;9862;49.462;11.054;2023-05-07T13:23:05;3.92;;;3.53;;
19446;SDS011;9862;49.462;11.054;2023-05-07T13:25:32;5.30;;;4.07;;
19446;SDS011;9862;49.462;11.054;2023-05-07T13:27:59;4.10;;;3.63;;
19446;SDS011;9862;49.462;11.054;2023-05-07T13:30:25;5.07;;;3.90;;
19446;SDS011;9862;49.462;11.054;2023-05-07T13:32:53;6.13;;;4.68;;
19446;SDS011;9862;49.462;11.054;2023-05-07T13:35:23;8.18;;;5.03;;
19446;SDS011;9862;49.462;11.054;2023-05-07T13:37:50;12.02;;;8.35;;
19446;SDS011;9862;49.462;11.054;2023-05-07T13:40:17;7.32;;;5.38;;
19446;SDS011;9862;49.462;11.054;2023-05-07T13:42:44;18.45;;;11.95;;
19446;SDS011;9862;49.462;11.054;2023-05-07T13:45:10;8.25;;;5.78;;
19446;SDS011;9862;49.462;11.054;2023-05-07T13:47:40;3.67;;;3.38;;
19446;SDS011;9862;49.462;11.054;2023-05-07T13:50:07;5.82;;;3.97;;
19446;SDS011;9862;49.462;11.054;2023-05-07T13:52:36;4.43;;;3.33;;
19446;SDS011;9862;49.462;11.054;2023-05-07T13:55:03;3.90;;;3.50;;
19446;SDS011;9862;49.462;11.054;2023-05-07T13:57:30;5.38;;;3.75;;
19446;SDS011;9862;49.462;11.054;2023-05-07T13:59:57;9.45;;;4.57;;
19446;SDS011;9862;49.462;11.054;2023-05-07T14:02:24;5.65;;;4.00;;
19446;SDS011;9862;49.462;11.054;2023-05-07T14:04:50;5.72;;;4.30;;
19446;SDS011;9862;49.462;11.054;2023-05-07T14:07:17;3.90;;;3.25;;
19446;SDS011;9862;49.462;11.054;2023-05-07T14:09:45;4.30;;;3.20;;
19446;SDS011;9862;49.462;11.054;2023-05-07T14:12:11;5.88;;;3.60;;
19446;SDS011;9862;49.462;11.054;2023-05-07T14:14:38;4.15;;;3.65;;
19446;SDS011;9862;49.462;11.054;2023-05-07T14:17:05;3.70;;;3.30;;
19446;SDS011;9862;49.462;11.054;2023-05-07T14:19:31;5.15;;;3.75;;
19446;SDS011;9862;49.462;11.054;2023-05-07T14:21:58;5.72;;;5.13;;
19446;SDS011;9862;49.462;11.054;2023-05-07T14:24:25;5.32;;;4.20;;
19446;SDS011;9862;49.462;11.054;2023-05-07T14:26:53;5.07;;;3.78;;
19446;SDS011;9862;49.462;11.054;2023-05-07T14:29:19;11.07;;;8.15;;
19446;SDS011;9862;49.462;11.054;2023-05-07T14:31:47;3.75;;;3.35;;
19446;SDS011;9862;49.462;11.054;2023-05-07T14:34:13;4.82;;;3.20;;
19446;SDS011;9862;49.462;11.054;2023-05-07T14:36:40;4.65;;;3.30;;
19446;SDS011;9862;49.462;11.054;2023-05-07T14:39:07;4.38;;;3.42;;
19446;SDS011;9862;49.462;11.054;2023-05-07T14:41:34;3.50;;;3.20;;
19446;SDS011;9862;49.462;11.054;2023-05-07T14:44:03;4.53;;;3.75;;
19446;SDS011;9862;49.462;11.054;2023-05-07T14:46:30;4.35;;;3.85;;
19446;SDS011;9862;49.462;11.054;2023-05-07T14:48:56;4.63;;;3.42;;
19446;SDS011;9862;49.462;11.054;2023-05-07T14:51:23;4.65;;;3.60;;
19446;SDS011;9862;49.462;11.054;2023-05-07T14:53:51;4.93;;;3.70;;
19446;SDS011;9862;49.462;11.054;2023-05-07T14:56:17;4.00;;;3.60;;